Chaplin, Connecticut
Current Conditions -  °F | °C
As of 11:52 AM on Thursday 23 Oct 2014 (Local Time) from KIJD Reporting Station
Overcast Overcast  
Wind Chill: 55°   Ceiling: 2000
Heat Index: 55°   Visibility: 10mi
Dew Point: 47°   Wind: 15mph
Humidity: 74%   Direction: 10°N
Pressure: 29.63"   Gusts: 28mph
Location:  41.79°N, 72.13°W
Report Text: KIJD 231552Z AUTO 01013G24KT 10SM OVC020 13/08 A2963 RMK AO2 SLP034 T01280083
Loading
Personal Weather Stations






























Interactive Weather Map
Tropical Storm Tracking
New forecast layout! Learn more

10-Day Weather Forecast

Advertisements
Track Severe Weather on mobile